createdAt,value
2023-03-22T00:03:16.378Z,7.11
2023-03-22T00:07:20.432Z,7.07
2023-03-22T00:11:23.928Z,7.22
2023-03-22T00:15:24.397Z,7.26
2023-03-22T00:19:35.321Z,7.30
2023-03-22T00:23:27.923Z,7.31
2023-03-22T00:27:14.564Z,7.23
2023-03-22T00:31:00.959Z,7.09
2023-03-22T00:34:47.929Z,7.07
2023-03-22T00:38:42.806Z,7.03
2023-03-22T00:42:30.869Z,6.92
2023-03-22T00:46:17.949Z,6.84
2023-03-22T00:50:04.728Z,6.75
2023-03-22T00:53:51.467Z,6.68
2023-03-22T00:57:38.873Z,6.65
2023-03-22T01:01:25.784Z,6.63
2023-03-22T01:05:14.537Z,6.59
2023-03-22T01:09:01.283Z,6.48
2023-03-22T01:12:49.989Z,6.43
2023-03-22T01:16:36.681Z,6.45
2023-03-22T01:20:23.751Z,6.46
2023-03-22T01:24:09.983Z,6.45
2023-03-22T01:27:56.938Z,6.43
2023-03-22T01:31:43.724Z,6.39
2023-03-22T01:35:31.411Z,6.50
2023-03-22T01:39:19.040Z,6.59
2023-03-22T01:43:07.462Z,6.52
2023-03-22T01:46:53.784Z,6.51
2023-03-22T01:50:40.984Z,6.44
2023-03-22T01:54:27.712Z,6.47
2023-03-22T01:58:14.342Z,6.47
2023-03-22T02:02:06.362Z,6.39
2023-03-22T02:05:54.261Z,6.26
2023-03-22T02:09:42.591Z,6.20
2023-03-22T02:13:47.146Z,6.16
2023-03-22T02:18:10.711Z,6.23
2023-03-22T02:22:00.104Z,6.23
2023-03-22T02:25:46.611Z,6.20
2023-03-22T02:29:35.873Z,6.10
2023-03-22T02:33:23.073Z,6.04
2023-03-22T02:37:10.211Z,5.93
2023-03-22T02:40:56.272Z,5.92
2023-03-22T02:44:49.159Z,5.89
2023-03-22T02:48:32.716Z,5.90
2023-03-22T02:52:32.784Z,5.91
2023-03-22T02:56:36.158Z,5.91
2023-03-22T03:00:34.541Z,5.95
2023-03-22T03:04:37.552Z,5.99
2023-03-22T03:08:36.709Z,6.04
2023-03-22T03:12:38.667Z,6.07
2023-03-22T03:16:41.758Z,6.10
2023-03-22T03:20:41.949Z,6.12
2023-03-22T03:24:45.268Z,6.13
2023-03-22T03:28:44.797Z,6.18
2023-03-22T03:32:49.162Z,6.17
2023-03-22T03:36:55.662Z,6.15
2023-03-22T03:40:55.913Z,6.16
2023-03-22T03:45:04.955Z,6.19
2023-03-22T03:49:05.494Z,6.21
2023-03-22T03:53:01.972Z,6.21
2023-03-22T03:57:04.042Z,6.21
2023-03-22T04:01:02.015Z,6.25
2023-03-22T04:05:27.592Z,6.29
2023-03-22T04:09:29.916Z,6.30
2023-03-22T04:13:33.851Z,6.30
2023-03-22T04:17:33.509Z,6.33
2023-03-22T04:21:35.860Z,6.32
2023-03-22T04:25:32.904Z,6.34
2023-03-22T04:29:38.407Z,6.53
2023-03-22T04:33:57.005Z,6.72
2023-03-22T04:38:04.671Z,6.92
2023-03-22T04:42:11.470Z,6.94
2023-03-22T04:46:12.167Z,6.95
2023-03-22T04:50:15.437Z,7.07
2023-03-22T04:54:19.815Z,7.15
2023-03-22T04:58:17.087Z,7.25
2023-03-22T05:02:14.893Z,7.41
2023-03-22T05:06:17.396Z,7.57
2023-03-22T05:10:34.468Z,7.67
2023-03-22T05:14:36.271Z,7.72
2023-03-22T05:18:34.092Z,7.79
2023-03-22T05:22:35.439Z,7.89
2023-03-22T05:26:32.472Z,7.98
2023-03-22T05:30:34.026Z,8.11
2023-03-22T05:34:48.586Z,8.26
2023-03-22T05:38:57.675Z,8.51
2023-03-22T05:42:57.141Z,8.77
2023-03-22T05:47:00.372Z,8.87
2023-03-22T05:51:03.982Z,9.14
2023-03-22T05:55:04.496Z,9.36
2023-03-22T05:59:07.174Z,9.66
2023-03-22T06:03:09.657Z,9.98
2023-03-22T06:07:14.383Z,10.23
2023-03-22T06:11:26.630Z,10.50
2023-03-22T06:15:26.024Z,10.82
2023-03-22T06:19:38.557Z,11.10
2023-03-22T06:23:36.505Z,11.28
2023-03-22T06:27:37.837Z,11.58
2023-03-22T06:31:39.612Z,11.91
2023-03-22T06:35:40.305Z,12.23
2023-03-22T06:39:42.585Z,12.45
2023-03-22T06:43:40.328Z,12.57
2023-03-22T06:47:50.023Z,12.85
2023-03-22T06:52:11.245Z,13.09
2023-03-22T06:56:12.076Z,13.25
2023-03-22T07:00:18.002Z,13.50
2023-03-22T07:04:19.267Z,13.68
2023-03-22T07:08:18.325Z,13.68
2023-03-22T07:12:26.974Z,13.67
2023-03-22T07:16:28.221Z,13.80
2023-03-22T07:20:32.710Z,13.85
2023-03-22T07:24:32.163Z,13.92
2023-03-22T07:28:54.751Z,13.98
2023-03-22T07:32:56.617Z,14.06
2023-03-22T07:37:00.719Z,14.10
2023-03-22T07:41:05.275Z,14.23
2023-03-22T07:45:21.281Z,14.30
2023-03-22T07:50:00.211Z,14.49
2023-03-22T07:54:07.727Z,14.60
2023-03-22T07:57:50.247Z,14.56
2023-03-22T08:01:52.382Z,14.56
2023-03-22T08:06:01.255Z,14.62
2023-03-22T08:10:03.414Z,14.75
2023-03-22T08:14:02.259Z,15.05
2023-03-22T08:18:07.852Z,15.30
2023-03-22T08:22:10.448Z,15.38
2023-03-22T08:26:49.903Z,15.44
2023-03-22T08:31:09.726Z,15.43
2023-03-22T08:35:11.361Z,15.43
2023-03-22T08:39:10.553Z,15.52
2023-03-22T08:43:26.572Z,15.69
2023-03-22T08:47:25.750Z,15.90
2023-03-22T08:51:29.193Z,16.07
2023-03-22T08:55:48.855Z,16.24
2023-03-22T09:00:08.163Z,16.31
2023-03-22T09:04:24.587Z,16.27
2023-03-22T09:08:25.699Z,16.30
2023-03-22T09:12:31.710Z,16.33
2023-03-22T09:16:33.399Z,16.45
2023-03-22T09:20:35.321Z,16.42
2023-03-22T09:24:37.532Z,16.25
2023-03-22T09:28:38.832Z,16.19
2023-03-22T09:32:37.330Z,16.31
2023-03-22T09:36:38.694Z,16.54
2023-03-22T09:40:35.392Z,16.60
2023-03-22T09:44:36.676Z,16.61
2023-03-22T09:48:35.814Z,16.74
2023-03-22T09:52:37.439Z,16.80
2023-03-22T09:56:34.820Z,16.76
2023-03-22T10:00:36.114Z,16.83
2023-03-22T10:04:35.224Z,16.99
2023-03-22T10:08:36.845Z,17.13
2023-03-22T10:12:33.932Z,17.22
2023-03-22T10:16:38.787Z,17.30
2023-03-22T10:20:36.036Z,17.30
2023-03-22T10:24:37.464Z,17.23
2023-03-22T10:28:34.548Z,17.29
2023-03-22T10:32:37.400Z,17.34
2023-03-22T10:36:37.714Z,17.37
2023-03-22T10:40:37.980Z,17.46
2023-03-22T10:44:34.109Z,17.34
2023-03-22T10:48:37.376Z,17.17
2023-03-22T10:52:34.778Z,17.20
2023-03-22T10:56:35.199Z,17.31
2023-03-22T11:00:32.653Z,17.31
2023-03-22T11:04:33.798Z,17.39
2023-03-22T11:08:30.913Z,17.62
2023-03-22T11:12:32.598Z,17.85
2023-03-22T11:16:32.717Z,17.89
2023-03-22T11:20:38.552Z,17.90
2023-03-22T11:24:35.700Z,17.99
2023-03-22T11:28:37.846Z,18.28
2023-03-22T11:32:34.776Z,18.62
2023-03-22T11:36:35.899Z,18.61
2023-03-22T11:40:35.767Z,18.44
2023-03-22T11:44:36.219Z,18.20
2023-03-22T11:48:32.547Z,18.12
2023-03-22T11:52:33.822Z,18.13
2023-03-22T11:56:31.186Z,18.21
2023-03-22T12:00:32.325Z,18.14
2023-03-22T12:04:30.229Z,18.01
2023-03-22T12:08:30.839Z,17.88
2023-03-22T12:12:27.942Z,17.74
2023-03-22T12:16:30.266Z,17.52
2023-03-22T12:20:27.525Z,17.22
2023-03-22T12:24:28.492Z,17.06
2023-03-22T12:28:24.727Z,17.24
2023-03-22T12:32:26.165Z,17.24
2023-03-22T12:36:23.139Z,17.19
2023-03-22T12:40:24.699Z,17.08
2023-03-22T12:44:21.758Z,17.00
2023-03-22T12:48:22.452Z,16.94
2023-03-22T12:52:18.857Z,17.04
2023-03-22T12:56:19.440Z,17.06
2023-03-22T13:00:16.857Z,17.10
2023-03-22T13:04:14.454Z,17.10
2023-03-22T13:08:15.331Z,17.14
2023-03-22T13:12:12.194Z,17.23
2023-03-22T13:16:13.204Z,17.32
2023-03-22T13:20:10.869Z,17.48
2023-03-22T13:24:12.098Z,17.70
2023-03-22T13:28:09.051Z,18.02
2023-03-22T13:32:10.362Z,18.16
2023-03-22T13:36:07.574Z,18.25
2023-03-22T13:40:08.482Z,18.34
2023-03-22T13:44:06.946Z,18.28
2023-03-22T13:48:12.808Z,18.17
2023-03-22T13:52:10.452Z,18.07
2023-03-22T13:56:11.578Z,18.14
2023-03-22T14:00:15.084Z,18.11
2023-03-22T14:04:18.003Z,18.08
2023-03-22T14:08:15.061Z,18.00
2023-03-22T14:12:17.735Z,18.10
2023-03-22T14:16:15.115Z,18.03
2023-03-22T14:20:15.627Z,17.90
